< Typhoon 199219 1992 Season Typhoon 199221 >
Typhoon 199220 (VAL)
General InformationTrack Information on Google MapsDetailed Wind InformationList of All Images || Disaster Info.ResourceGoogle EarthGE AnimationAtom FeedGeoJSON
Detalied Best Track (Time Zone = UTC)
Year Month Day Hour Lat. Long. Pressure (hPa) Wind (kt) Class Image Chart
1992 9 24 06 16.5 156.5 1002 0 2 Image Chart
1992 9 24 12 17.5 157.0 1002 0 2 Image Chart
1992 9 24 18 18.5 157.0 1002 0 2 Image Chart
1992 9 25 00 19.7 156.5 1000 0 2 Image Chart
1992 9 25 06 21.6 155.8 998 35 3 Image Chart
1992 9 25 12 22.7 154.8 996 40 3 Image Chart
1992 9 25 18 24.5 153.6 992 45 3 Image Chart
1992 9 26 00 26.1 153.3 992 45 3 Image Chart
1992 9 26 06 27.7 152.9 992 45 3 Image Chart
1992 9 26 12 29.3 152.1 990 45 3 Image Chart
1992 9 26 18 31.7 150.7 990 45 3 Image Chart
1992 9 27 00 33.4 149.8 990 45 3 Image Chart
1992 9 27 06 35.7 150.7 990 45 3 Image Chart
1992 9 27 12 38.4 153.3 990 45 3 Image Chart
1992 9 27 18 42.5 156.4 990 0 6 Image Chart
1992 9 28 00 46.0 157.8 984 0 6 Image Chart
1992 9 28 06 48.0 158.8 980 0 6 Image Chart
1992 9 28 12 50.5 160.2 978 0 6 Image Chart
1992 9 28 18 52.8 162.2 974 0 6 Image Chart
1992 9 29 00 54.0 164.0 972 0 6 Image Chart
1992 9 29 06 55.3 166.1 970 0 6 Image Chart
1992 9 29 12 56.4 168.6 970 0 6 Image Chart
1992 9 29 18 56.8 171.0 972 0 6 Image Chart
1992 9 30 00 57.0 176.0 972 0 6 Image Chart
1992 9 30 06 57.0 181.0 974 0 6 Image Chart
Japan Meteorological Agency Best Track Data | Correction Date : 1992-12-25
< Typhoon 199219 1992 Season Typhoon 199221 >

Help